KFOT - Fortuna, California, USA
Updated: Sun, 19-Feb-2017 7:35pm PST
Mostly Cloudy
Mostly Cloudy
 Wind from SE
Wind: SE 21 mph , 33 km/h, Gust: 26 mph , 43 km/h
Temperature: 54°F , 12°C
Dew Point: 48°F , 9°C
Humidity: 82%
Barometer: 29.66 inHg , 1004.4 hPa
Clouds: Mostly Cloudy
Visibility: 10 miles , 16 km
Cloud details: Few Clouds 3200 ft
Partly Cloudy 4200 ft
Mostly Cloudy 10000 ft
2017/02/20 03:35 KFOT 200335Z AUTO 13018G23KT 10SM FEW032 SCT042 BKN100 12/09 A2966 RMK AO1

Metar display script from Saratoga-Weather.org